Time;durP1;ratioP1;P1;durP2;ratioP2;P2;SDS_P1;SDS_P2;PMS_P1;PMS_P2;Temp;Humidity;BMP_temperature;BMP_pressure;BME280_temperature;BME280_humidity;BME280_pressure;Samples;Min_cycle;Max_cycle;Signal;HPM_P1;HPM_P2
2022/01/14 00:00:49;;;;;;;38.83;13.70;;;-0.90;1.00;;;;;;5110924;28;20209;-72
2022/01/14 00:03:16;;;;;;;35.77;15.07;;;-1.00;1.00;;;;;;5111246;28;20606;-71
2022/01/14 00:05:43;;;;;;;28.40;15.30;;;-1.00;1.00;;;;;;5110804;28;20605;-70
2022/01/14 00:08:10;;;;;;;19.27;11.27;;;-1.00;1.00;;;;;;5111142;28;20649;-71
2022/01/14 00:10:37;;;;;;;22.90;12.53;;;-1.10;1.00;;;;;;5110335;28;20664;-70
2022/01/14 00:13:16;;;;;;;19.40;12.70;;;-1.10;1.00;;;;;;5111137;28;20201;-71
2022/01/14 00:15:43;;;;;;;35.23;13.83;;;-0.80;1.00;;;;;;5110644;28;20213;-71
2022/01/14 00:18:11;;;;;;;21.43;12.27;;;-1.00;1.00;;;;;;5110705;28;20668;-71
2022/01/14 00:20:38;;;;;;;18.07;11.10;;;-0.80;1.00;;;;;;5110811;28;20205;-71
2022/01/14 00:23:06;;;;;;;29.53;13.10;;;-0.60;1.00;;;;;;5111131;28;20254;-71
2022/01/14 00:33:47;;;;;;;22.60;11.27;;;-0.70;99.90;;;;;;5110405;28;20207;-69
2022/01/14 00:36:15;;;;;;;18.77;12.10;;;-0.70;99.90;;;;;;5110839;28;20557;-69
2022/01/14 00:38:42;;;;;;;30.27;12.70;;;-0.90;57.30;;;;;;5110777;28;20209;-69
2022/01/14 00:41:10;;;;;;;24.93;11.60;;;-0.70;99.90;;;;;;5110812;28;20205;-70
2022/01/14 00:43:39;;;;;;;17.07;10.27;;;-0.90;74.10;;;;;;5110589;28;20201;-70
2022/01/14 00:46:06;;;;;;;22.27;12.03;;;-1.10;99.90;;;;;;5110586;28;20209;-70
2022/01/14 00:48:33;;;;;;;26.53;11.93;;;-1.20;99.90;;;;;;5110340;28;20254;-70
2022/01/14 00:51:01;;;;;;;23.30;12.50;;;-1.10;1.00;;;;;;5111000;28;20266;-71
2022/01/14 00:53:28;;;;;;;29.87;12.60;;;-1.10;1.00;;;;;;5111004;28;20205;-72
2022/01/14 00:56:05;;;;;;;21.87;12.50;;;-1.20;1.00;;;;;;5110657;28;20205;-69
2022/01/14 01:01:17;;;;;;;22.83;12.63;;;-1.10;1.00;;;;;;5110407;28;20216;-69
2022/01/14 01:03:43;;;;;;;15.97;10.37;;;-1.00;1.00;;;;;;5110399;28;20208;-73
2022/01/14 01:06:12;;;;;;;19.47;11.40;;;-0.70;1.00;;;;;;5110744;28;20205;-71
2022/01/14 01:08:39;;;;;;;23.03;11.83;;;-0.70;1.00;;;;;;5110425;28;20212;-70
2022/01/14 01:11:10;;;;;;;51.77;15.23;;;-1.00;99.90;;;;;;5110704;28;20265;-70
2022/01/14 01:13:42;;;;;;;26.07;11.53;;;-1.40;99.90;;;;;;5110734;28;20295;-73
2022/01/14 01:16:09;;;;;;;22.67;12.73;;;-1.10;1.00;;;;;;5110390;28;20661;-69
2022/01/14 01:18:36;;;;;;;21.00;10.40;;;-1.20;99.90;;;;;;5110093;28;20571;-71
2022/01/14 01:21:03;;;;;;;19.50;11.03;;;-1.30;99.90;;;;;;5110824;28;20266;-71
2022/01/14 01:23:31;;;;;;;15.57;10.27;;;-1.00;1.00;;;;;;5114041;28;20720;-72
2022/01/14 01:26:08;;;;;;;21.10;11.87;;;-1.00;99.90;;;;;;5114335;28;20241;-69
2022/01/14 01:28:41;;;;;;;19.40;10.57;;;-0.80;99.90;;;;;;5113833;28;20204;-71
2022/01/14 01:31:35;;;;;;;20.87;10.90;;;-0.90;99.90;;;;;;5113707;28;20684;-74
2022/01/14 01:33:55;;;;;;;17.20;10.03;;;-1.00;99.90;;;;;;5113930;28;20300;-68
2022/01/14 01:36:22;;;;;;;18.93;9.00;;;-1.20;99.90;;;;;;5113859;28;20673;-71
2022/01/14 01:38:50;;;;;;;16.67;10.77;;;-1.30;99.90;;;;;;5113450;28;20700;-73
2022/01/14 01:41:18;;;;;;;16.27;9.70;;;-1.40;99.90;;;;;;5113922;28;20269;-69
2022/01/14 01:43:50;;;;;;;16.17;9.47;;;-1.50;99.90;;;;;;5113706;28;20208;-72
2022/01/14 01:46:17;;;;;;;15.07;9.87;;;-1.40;99.90;;;;;;5113560;28;20579;-71
2022/01/14 01:48:44;;;;;;;16.67;10.97;;;-1.10;1.00;;;;;;5113645;28;20284;-71
2022/01/14 01:51:11;;;;;;;15.93;10.43;;;-0.70;1.00;;;;;;5112415;28;20233;-71
2022/01/14 01:53:39;;;;;;;16.67;10.57;;;-0.90;99.90;;;;;;5113106;28;20673;-69
2022/01/14 01:56:08;;;;;;;17.87;11.73;;;-1.20;1.00;;;;;;5113391;28;20219;-69
2022/01/14 01:58:35;;;;;;;19.33;10.10;;;-1.40;1.00;;;;;;5112908;28;20764;-71
2022/01/14 02:01:04;;;;;;;12.60;9.00;;;-1.50;13.30;;;;;;5113557;27;20259;-72
2022/01/14 02:03:31;;;;;;;21.80;10.73;;;-1.50;53.20;;;;;;5113439;28;20253;-72
2022/01/14 02:05:58;;;;;;;19.87;12.53;;;-1.30;99.90;;;;;;5113701;28;20262;-72
2022/01/14 02:08:25;;;;;;;15.97;10.43;;;-1.20;99.90;;;;;;5113830;28;20262;-70
2022/01/14 02:10:52;;;;;;;17.50;11.13;;;-1.30;64.10;;;;;;5113163;28;20653;-71
2022/01/14 02:13:21;;;;;;;15.10;9.93;;;-1.30;22.30;;;;;;5113151;28;20205;-73
2022/01/14 02:15:51;;;;;;;20.43;11.10;;;-1.20;82.00;;;;;;5112756;28;20544;-71
2022/01/14 02:18:33;;;;;;;18.43;11.17;;;-1.10;46.00;;;;;;5113154;28;20208;-70
2022/01/14 02:23:53;;;;;;;21.37;11.57;;;-1.00;99.90;;;;;;5112685;28;20322;-70
2022/01/14 02:26:21;;;;;;;21.07;10.63;;;-1.30;1.00;;;;;;5113085;28;20261;-72
2022/01/14 02:28:48;;;;;;;19.23;11.03;;;-1.40;22.10;;;;;;5112504;28;20261;-72
2022/01/14 02:31:16;;;;;;;16.10;10.67;;;-1.30;99.90;;;;;;5113120;28;20256;-70
2022/01/14 02:33:43;;;;;;;13.63;9.60;;;-1.20;99.90;;;;;;5112128;28;20208;-73
2022/01/14 02:36:12;;;;;;;15.57;10.97;;;-1.20;99.90;;;;;;5112856;28;20209;-70
2022/01/14 02:38:39;;;;;;;19.67;10.80;;;-1.30;18.00;;;;;;5112384;28;20201;-68
2022/01/14 02:41:06;;;;;;;18.17;10.90;;;-1.60;99.90;;;;;;5112559;28;20668;-68
2022/01/14 02:43:34;;;;;;;17.97;12.50;;;-1.50;99.90;;;;;;5112044;28;20260;-69
2022/01/14 02:46:01;;;;;;;18.30;12.13;;;-1.30;99.90;;;;;;5112690;28;20707;-69
2022/01/14 02:48:30;;;;;;;13.97;9.27;;;-1.30;99.90;;;;;;5113105;28;20212;-70
2022/01/14 02:51:01;;;;;;;18.77;10.17;;;-1.50;99.90;;;;;;5112552;28;20675;-70
2022/01/14 02:53:41;;;;;;;16.77;9.17;;;-1.40;99.90;;;;;;5112727;28;20564;-69
2022/01/14 02:56:10;;;;;;;20.33;10.43;;;-1.70;99.90;;;;;;5112281;28;20220;-68
2022/01/14 02:58:40;;;;;;;17.40;9.40;;;-1.60;99.90;;;;;;5111827;28;20668;-67
2022/01/14 03:01:10;;;;;;;15.67;10.40;;;-1.30;99.90;;;;;;5112342;28;20201;-69
2022/01/14 03:03:39;;;;;;;21.17;11.73;;;-1.30;99.90;;;;;;5111891;27;20204;-68
2022/01/14 03:06:07;;;;;;;20.30;10.97;;;-1.30;99.90;;;;;;5111803;28;20641;-72
2022/01/14 03:08:36;;;;;;;16.40;10.60;;;-1.40;93.20;;;;;;5112188;28;20204;-69
2022/01/14 03:11:08;;;;;;;20.20;10.53;;;-1.30;99.90;;;;;;5112136;28;20201;-69
2022/01/14 03:13:36;;;;;;;19.17;12.33;;;-1.40;99.90;;;;;;5111793;28;20246;-72
2022/01/14 03:16:03;;;;;;;17.27;10.80;;;-1.50;99.90;;;;;;5112167;28;20583;-74
2022/01/14 03:18:37;;;;;;;16.57;9.80;;;-1.50;99.90;;;;;;5111891;28;20691;-74
2022/01/14 03:21:11;;;;;;;17.37;11.37;;;-1.60;99.90;;;;;;5111841;28;20667;-72
2022/01/14 03:23:46;;;;;;;14.50;9.63;;;-1.60;99.90;;;;;;5111544;28;20200;-71
2022/01/14 03:26:14;;;;;;;18.53;11.50;;;-1.60;99.90;;;;;;5111668;28;20652;-69
2022/01/14 03:28:43;;;;;;;18.30;9.83;;;-1.40;99.90;;;;;;5111394;28;20201;-70
2022/01/14 03:31:11;;;;;;;18.07;10.40;;;-1.30;99.90;;;;;;5111779;28;20210;-73
2022/01/14 03:33:38;;;;;;;16.90;10.87;;;-1.30;99.90;;;;;;5111578;28;20246;-73
2022/01/14 03:36:06;;;;;;;15.50;10.33;;;-1.20;99.90;;;;;;5111939;28;20626;-72
2022/01/14 03:38:34;;;;;;;17.37;10.17;;;-1.30;20.50;;;;;;5111489;28;20205;-69
2022/01/14 03:41:02;;;;;;;15.00;9.33;;;-1.60;1.00;;;;;;5111316;28;20208;-69
2022/01/14 03:43:30;;;;;;;17.27;10.87;;;-1.80;81.00;;;;;;5111538;28;20205;-70
2022/01/14 03:45:57;;;;;;;17.03;10.50;;;-1.90;99.90;;;;;;5111500;28;20235;-76
2022/01/14 03:48:24;;;;;;;15.93;10.57;;;-1.80;99.90;;;;;;5112588;28;20204;-74
2022/01/14 03:50:51;;;;;;;15.47;9.93;;;-1.80;99.90;;;;;;5111313;28;20205;-73
2022/01/14 03:53:18;;;;;;;16.50;9.77;;;-1.50;99.90;;;;;;5111354;28;20667;-75
2022/01/14 03:55:46;;;;;;;17.67;10.53;;;-1.60;99.90;;;;;;5110818;28;20211;-72
2022/01/14 03:58:14;;;;;;;16.40;10.97;;;-1.50;99.90;;;;;;5111474;28;20227;-75
2022/01/14 04:00:41;;;;;;;16.83;9.93;;;-1.80;75.30;;;;;;5111212;28;20201;-73
2022/01/14 04:03:09;;;;;;;16.87;11.83;;;-1.90;99.90;;;;;;5111470;28;20200;-74
2022/01/14 04:05:37;;;;;;;16.03;9.20;;;-1.90;99.90;;;;;;5110957;28;20282;-73
2022/01/14 04:08:05;;;;;;;18.57;10.50;;;-1.90;99.90;;;;;;5111261;28;20203;-75
2022/01/14 04:10:32;;;;;;;19.27;10.27;;;-1.60;99.90;;;;;;5110905;28;20197;-69
2022/01/14 04:13:03;;;;;;;22.37;10.30;;;-1.60;99.90;;;;;;5111391;28;20687;-70
2022/01/14 04:15:38;;;;;;;17.00;10.60;;;-1.80;99.90;;;;;;5111059;28;20211;-75
2022/01/14 04:18:06;;;;;;;17.30;11.33;;;-1.80;99.90;;;;;;5111325;28;20256;-79
2022/01/14 04:20:34;;;;;;;22.03;12.17;;;-1.80;1.00;;;;;;5111043;28;20306;-75
2022/01/14 04:23:02;;;;;;;15.67;11.20;;;-1.80;99.90;;;;;;5111301;28;20608;-78
2022/01/14 04:25:29;;;;;;;17.47;11.37;;;-1.90;99.90;;;;;;5111740;28;20287;-72
2022/01/14 04:27:56;;;;;;;25.23;12.00;;;-2.00;99.90;;;;;;5111328;28;20204;-74
2022/01/14 04:30:24;;;;;;;19.70;12.97;;;-1.90;1.00;;;;;;5111232;28;20207;-74
2022/01/14 04:32:53;;;;;;;22.13;10.63;;;-2.00;1.00;;;;;;5110743;28;20254;-77
2022/01/14 04:35:20;;;;;;;21.43;13.23;;;-1.90;1.00;;;;;;5111303;28;20213;-77
2022/01/14 04:37:47;;;;;;;20.43;13.03;;;-1.80;1.00;;;;;;5110614;28;20204;-79
2022/01/14 04:40:15;;;;;;;24.00;13.40;;;-1.90;1.00;;;;;;5110717;28;20680;-73
2022/01/14 04:42:43;;;;;;;21.53;12.70;;;-1.80;1.00;;;;;;5110747;28;20205;-77
2022/01/14 04:45:14;;;;;;;44.37;13.17;;;-1.80;1.00;;;;;;5111049;28;20280;-74
2022/01/14 04:47:46;;;;;;;20.70;12.07;;;-1.90;1.00;;;;;;5110716;28;20212;-78
2022/01/14 04:50:17;;;;;;;20.57;12.30;;;-1.70;1.00;;;;;;5111168;28;20200;-73
2022/01/14 04:52:45;;;;;;;21.27;11.23;;;-1.60;1.00;;;;;;5110428;28;20261;-71
2022/01/14 04:55:14;;;;;;;20.27;11.73;;;-1.70;1.00;;;;;;5110891;28;20303;-74
2022/01/14 04:57:42;;;;;;;20.03;12.77;;;-1.50;1.00;;;;;;5114417;28;20201;-74
2022/01/14 05:00:11;;;;;;;18.40;11.77;;;-1.20;1.00;;;;;;5114718;28;20212;-71
2022/01/14 05:02:38;;;;;;;56.03;14.93;;;-1.30;99.90;;;;;;5114243;28;20611;-73
2022/01/14 05:05:06;;;;;;;22.97;12.10;;;-1.70;52.90;;;;;;5114575;28;20236;-70
2022/01/14 05:07:34;;;;;;;24.27;11.53;;;-1.70;99.90;;;;;;5114082;28;20610;-74
2022/01/14 05:10:18;;;;;;;19.20;10.60;;;-1.50;99.90;;;;;;5114744;28;20201;-72
2022/01/14 05:12:46;;;;;;;18.50;11.27;;;-1.50;99.90;;;;;;5114101;28;20242;-71
2022/01/14 05:15:15;;;;;;;19.03;11.77;;;-1.60;99.90;;;;;;5114474;28;20205;-71
2022/01/14 05:17:43;;;;;;;16.73;11.10;;;-1.60;99.90;;;;;;5114183;28;20254;-73
2022/01/14 05:20:11;;;;;;;14.87;10.27;;;-1.50;99.90;;;;;;5114546;28;20250;-69
2022/01/14 05:22:39;;;;;;;16.10;10.23;;;-1.40;99.90;;;;;;5113794;28;20196;-72
2022/01/14 05:25:08;;;;;;;16.23;10.23;;;-1.60;6.00;;;;;;5114260;27;20201;-76
2022/01/14 05:27:36;;;;;;;17.07;11.33;;;-1.80;45.60;;;;;;5113839;28;20213;-77
2022/01/14 05:30:03;;;;;;;17.67;11.37;;;-1.90;99.90;;;;;;5114072;28;20261;-79
2022/01/14 05:32:30;;;;;;;19.37;11.03;;;-2.00;99.90;;;;;;5114273;28;20217;-70
2022/01/14 05:34:57;;;;;;;18.03;11.00;;;-1.80;99.90;;;;;;5114618;28;20247;-76
2022/01/14 05:37:24;;;;;;;15.67;10.03;;;-1.90;99.90;;;;;;5114258;28;20687;-77
2022/01/14 05:39:53;;;;;;;17.40;11.10;;;-2.00;99.90;;;;;;5113761;28;20787;-72
2022/01/14 05:42:20;;;;;;;18.70;10.63;;;-2.00;99.90;;;;;;5113950;28;20208;-77
2022/01/14 05:44:47;;;;;;;19.87;11.37;;;-2.00;1.00;;;;;;5113779;27;20242;-76
2022/01/14 05:47:14;;;;;;;20.30;12.13;;;-2.00;1.00;;;;;;5113914;28;20278;-72
2022/01/14 05:49:41;;;;;;;19.07;11.20;;;-2.10;1.00;;;;;;5113716;27;20260;-76
2022/01/14 05:52:08;;;;;;;20.50;11.97;;;-2.00;1.00;;;;;;5113462;28;20616;-77
2022/01/14 05:54:35;;;;;;;17.73;11.00;;;-1.80;1.00;;;;;;5113267;28;20219;-75
2022/01/14 05:57:03;;;;;;;25.63;11.93;;;-2.00;1.00;;;;;;5113090;28;20254;-70
2022/01/14 05:59:30;;;;;;;19.20;11.40;;;-2.20;99.90;;;;;;5113735;28;20234;-74
2022/01/14 06:01:57;;;;;;;20.73;11.60;;;-2.00;1.00;;;;;;5113506;28;20254;-76
2022/01/14 06:04:24;;;;;;;18.13;11.57;;;-2.00;1.00;;;;;;5113891;28;20204;-75
2022/01/14 06:06:51;;;;;;;19.33;10.23;;;-2.10;1.00;;;;;;5112549;28;20228;-73
2022/01/14 06:09:18;;;;;;;16.03;9.63;;;-2.10;1.00;;;;;;5112859;28;20205;-72
2022/01/14 06:11:45;;;;;;;17.43;10.87;;;-2.20;1.00;;;;;;5112788;27;20208;-70
2022/01/14 06:14:14;;;;;;;13.20;10.37;;;-2.20;1.00;;;;;;5113646;28;20200;-71
2022/01/14 06:16:42;;;;;;;17.87;9.97;;;-2.20;1.00;;;;;;5112929;28;20207;-75
2022/01/14 06:19:08;;;;;;;18.70;9.93;;;-2.30;1.00;;;;;;5113315;28;20299;-74
2022/01/14 06:21:35;;;;;;;15.10;10.60;;;-2.30;1.00;;;;;;5112635;28;20212;-73
2022/01/14 06:24:03;;;;;;;18.07;10.67;;;-2.40;1.00;;;;;;5113019;28;20237;-70
2022/01/14 06:26:29;;;;;;;17.27;10.87;;;-2.40;1.00;;;;;;5113199;28;20772;-73
2022/01/14 06:28:57;;;;;;;15.90;10.03;;;-2.40;1.00;;;;;;5113291;28;20269;-72
2022/01/14 06:31:25;;;;;;;16.67;10.97;;;-2.50;1.00;;;;;;5113275;28;20208;-70
2022/01/14 06:33:52;;;;;;;15.10;9.83;;;-2.50;1.00;;;;;;5112601;27;20211;-72
2022/01/14 06:36:19;;;;;;;16.60;11.00;;;-2.50;1.00;;;;;;5112662;28;20241;-74
2022/01/14 06:38:46;;;;;;;14.97;9.80;;;-2.50;1.00;;;;;;5112425;28;20261;-74
2022/01/14 06:41:13;;;;;;;18.50;12.70;;;-2.40;1.00;;;;;;5112750;28;20610;-73
2022/01/14 06:43:40;;;;;;;16.17;10.60;;;-2.40;1.00;;;;;;5112481;27;20258;-73
2022/01/14 06:46:07;;;;;;;18.40;10.93;;;-2.50;1.00;;;;;;5112782;28;20277;-71
2022/01/14 06:48:35;;;;;;;16.87;12.57;;;-2.60;1.00;;;;;;5112089;28;20207;-74
2022/01/14 06:51:02;;;;;;;16.23;10.93;;;-2.50;1.00;;;;;;5112459;28;20202;-73
2022/01/14 06:53:29;;;;;;;20.57;12.57;;;-2.60;1.00;;;;;;5112805;28;20259;-71
2022/01/14 06:55:56;;;;;;;19.03;10.93;;;-2.60;1.00;;;;;;5112372;28;20210;-79
2022/01/14 06:58:23;;;;;;;17.03;10.83;;;-2.60;1.00;;;;;;5112646;28;20199;-71
2022/01/14 07:00:52;;;;;;;17.47;11.13;;;-2.70;1.00;;;;;;5112085;28;20203;-72
2022/01/14 07:03:19;;;;;;;19.80;12.20;;;-2.50;1.00;;;;;;5110538;28;20611;-69
2022/01/14 07:05:47;;;;;;;16.87;10.60;;;-2.60;1.00;;;;;;5110923;28;20276;-73
2022/01/14 07:08:14;;;;;;;19.43;13.83;;;-2.60;1.00;;;;;;5112437;28;20218;-73
2022/01/14 07:10:41;;;;;;;18.50;11.63;;;-2.60;1.00;;;;;;5112136;27;20335;-72
2022/01/14 07:13:08;;;;;;;18.73;12.60;;;-2.70;1.00;;;;;;5112614;28;20199;-75
2022/01/14 07:15:35;;;;;;;17.90;11.13;;;-2.80;1.00;;;;;;5111998;28;20272;-74
2022/01/14 07:18:02;;;;;;;22.10;11.97;;;-2.70;1.00;;;;;;5112141;28;20755;-76
2022/01/14 07:20:30;;;;;;;19.07;12.23;;;-2.70;1.00;;;;;;5112093;28;20256;-74
2022/01/14 07:22:58;;;;;;;20.33;12.03;;;-2.70;1.00;;;;;;5111840;28;20572;-72
2022/01/14 07:25:25;;;;;;;22.77;14.00;;;-2.70;1.00;;;;;;5111110;28;20263;-74
2022/01/14 07:27:52;;;;;;;20.23;13.03;;;-2.70;1.00;;;;;;5110467;28;20318;-73
2022/01/14 07:30:19;;;;;;;16.87;11.00;;;-2.70;1.00;;;;;;5110065;28;20274;-73
2022/01/14 07:32:46;;;;;;;19.93;13.43;;;-2.80;1.00;;;;;;5108762;28;20215;-71
2022/01/14 07:35:13;;;;;;;21.03;11.53;;;-2.80;1.00;;;;;;5111578;28;20204;-70
2022/01/14 07:37:40;;;;;;;17.23;10.70;;;-2.80;1.00;;;;;;5110646;28;20277;-72
2022/01/14 07:40:10;;;;;;;22.77;13.27;;;-2.80;1.00;;;;;;5111025;28;20223;-71
2022/01/14 07:42:37;;;;;;;21.90;12.13;;;-2.80;99.90;;;;;;5110450;28;20260;-71
2022/01/14 07:45:05;;;;;;;26.07;15.33;;;-2.60;99.90;;;;;;5111322;28;20207;-71
2022/01/14 07:47:33;;;;;;;25.90;13.83;;;-2.70;99.90;;;;;;5110693;28;20241;-71
2022/01/14 07:50:00;;;;;;;28.73;16.83;;;-2.70;99.90;;;;;;5111605;28;20578;-73
2022/01/14 07:52:27;;;;;;;33.37;19.90;;;-2.30;1.00;;;;;;5111859;28;20261;-71
2022/01/14 07:54:54;;;;;;;24.37;15.73;;;-2.20;99.90;;;;;;5111257;28;20215;-71
2022/01/14 07:57:22;;;;;;;22.60;14.20;;;-1.90;99.90;;;;;;5110298;28;20208;-71
2022/01/14 07:59:50;;;;;;;28.93;15.57;;;-1.40;1.00;;;;;;5105887;28;20209;-73
2022/01/14 08:02:20;;;;;;;25.07;15.93;;;-1.40;1.00;;;;;;5110636;28;20217;-71
2022/01/14 08:04:48;;;;;;;26.70;14.47;;;-1.70;1.00;;;;;;5110695;28;20550;-71
2022/01/14 08:07:17;;;;;;;17.80;12.60;;;-1.80;1.00;;;;;;5111172;28;20246;-71
2022/01/14 08:09:45;;;;;;;19.73;15.07;;;-1.50;1.00;;;;;;5110772;28;20212;-73
2022/01/14 08:12:13;;;;;;;21.03;12.97;;;-1.40;1.00;;;;;;5111176;28;20736;-72
2022/01/14 08:14:41;;;;;;;17.40;12.27;;;-1.30;1.00;;;;;;5110480;28;20204;-73
2022/01/14 08:17:09;;;;;;;21.30;12.73;;;-1.50;1.00;;;;;;5111174;28;20336;-75
2022/01/14 08:19:36;;;;;;;21.87;14.60;;;-1.40;1.00;;;;;;5110894;28;20208;-73
2022/01/14 08:22:05;;;;;;;24.83;13.87;;;-1.30;1.00;;;;;;5110815;28;20751;-77
2022/01/14 08:24:33;;;;;;;18.27;12.40;;;-1.20;1.00;;;;;;5111029;28;20277;-75
2022/01/14 08:27:00;;;;;;;18.37;12.70;;;-1.10;1.00;;;;;;5110881;28;20232;-79
2022/01/14 08:29:28;;;;;;;16.80;12.13;;;-1.00;1.00;;;;;;5111535;28;20211;-71
2022/01/14 08:31:56;;;;;;;17.70;11.93;;;-1.00;1.00;;;;;;5113052;28;20204;-75
2022/01/14 08:34:24;;;;;;;16.07;10.87;;;-0.70;1.00;;;;;;5115632;28;20212;-74
2022/01/14 08:36:51;;;;;;;16.20;10.63;;;-0.50;1.00;;;;;;5114811;28;20209;-73
2022/01/14 08:39:18;;;;;;;14.20;10.03;;;-0.30;1.00;;;;;;5115138;28;20292;-74
2022/01/14 08:41:45;;;;;;;14.40;9.37;;;0.10;1.00;;;;;;5114890;28;20212;-74
2022/01/14 08:44:14;;;;;;;14.73;9.83;;;1.20;1.00;;;;;;5112828;28;20735;-75
2022/01/14 08:46:42;;;;;;;13.93;10.40;;;1.60;1.00;;;;;;5110984;28;20289;-76
2022/01/14 08:49:10;;;;;;;16.73;11.17;;;1.90;1.00;;;;;;5113141;28;20205;-81
2022/01/14 08:51:38;;;;;;;18.37;12.77;;;2.70;1.00;;;;;;5114419;28;20208;-75
2022/01/14 08:54:05;;;;;;;16.17;10.73;;;2.90;1.00;;;;;;5114194;28;20254;-77
2022/01/14 08:56:33;;;;;;;19.27;11.87;;;3.40;1.00;;;;;;5112865;28;20205;-74
2022/01/14 08:59:00;;;;;;;16.93;9.87;;;3.70;1.00;;;;;;5113744;28;20204;-75
2022/01/14 09:01:27;;;;;;;15.17;9.93;;;4.30;1.00;;;;;;5111547;28;20212;-76
2022/01/14 09:03:55;;;;;;;14.03;10.87;;;4.50;1.00;;;;;;5114137;28;20676;-76
2022/01/14 09:06:23;;;;;;;11.80;10.23;;;4.50;1.00;;;;;;5115088;27;20285;-78
2022/01/14 09:08:50;;;;;;;16.55;11.30;;;5.20;1.00;;;;;;5113761;28;20447;-74
2022/01/14 09:11:18;;;;;;;13.63;8.87;;;5.70;1.00;;;;;;5114862;28;20201;-76
2022/01/14 09:13:45;;;;;;;14.37;11.00;;;5.50;1.00;;;;;;5114573;27;20201;-76
2022/01/14 09:16:12;;;;;;;12.93;10.07;;;6.00;1.00;;;;;;5114816;28;20208;-76
2022/01/14 09:18:39;;;;;;;15.60;11.93;;;7.60;1.00;;;;;;5114589;28;20197;-78
2022/01/14 09:21:06;;;;;;;12.33;10.07;;;6.80;1.00;;;;;;5112729;28;20245;-77
2022/01/14 09:23:36;;;;;;;14.13;11.30;;;4.80;1.00;;;;;;5114330;28;20261;-76
2022/01/14 09:26:04;;;;;;;13.00;10.23;;;5.70;1.00;;;;;;5114415;28;20205;-74
2022/01/14 09:28:33;;;;;;;15.43;11.07;;;4.40;1.00;;;;;;5114133;28;20266;-75
2022/01/14 09:31:00;;;;;;;14.07;10.00;;;3.80;1.00;;;;;;5113798;28;20680;-75
2022/01/14 09:33:27;;;;;;;12.67;10.03;;;4.50;1.00;;;;;;5111923;28;20640;-77
2022/01/14 09:35:54;;;;;;;13.53;10.63;;;6.10;1.00;;;;;;5113755;28;20209;-74
2022/01/14 09:38:22;;;;;;;14.00;10.40;;;6.40;1.00;;;;;;5114454;27;20210;-77
2022/01/14 09:40:52;;;;;;;14.67;11.47;;;6.50;1.00;;;;;;5113753;28;20262;-74
2022/01/14 09:43:19;;;;;;;14.90;11.00;;;5.70;1.00;;;;;;5109286;28;20709;-75
2022/01/14 09:45:46;;;;;;;16.37;12.53;;;6.00;1.00;;;;;;5112784;28;20213;-75
2022/01/14 09:48:17;;;;;;;12.77;11.23;;;6.00;1.00;;;;;;5113582;28;20768;-77
2022/01/14 09:50:44;;;;;;;15.97;10.83;;;7.00;1.00;;;;;;5113809;28;20273;-78
2022/01/14 09:53:13;;;;;;;13.97;12.43;;;8.30;1.00;;;;;;5114043;28;20209;-77
2022/01/14 09:55:40;;;;;;;15.30;11.50;;;8.50;1.00;;;;;;5111969;28;20213;-79
2022/01/14 09:58:09;;;;;;;16.50;12.27;;;7.80;1.00;;;;;;5112119;28;20208;-76
2022/01/14 10:00:37;;;;;;;17.30;11.83;;;7.30;1.00;;;;;;5112176;28;20205;-77
2022/01/14 10:03:22;;;;;;;13.60;11.63;;;9.80;1.00;;;;;;5112216;28;20579;-77
2022/01/14 10:05:51;;;;;;;16.48;14.70;;;10.30;1.00;;;;;;5111393;28;20427;-74
2022/01/14 10:08:24;;;;;;;15.13;13.10;;;11.00;1.00;;;;;;5107710;28;20323;-74
2022/01/14 10:10:54;;;;;;;12.50;11.20;;;11.10;1.00;;;;;;5111958;28;20193;-75
2022/01/14 10:13:24;;;;;;;15.47;12.33;;;11.50;1.00;;;;;;5113586;28;20234;-77
2022/01/14 10:15:53;;;;;;;13.90;11.53;;;12.10;1.00;;;;;;5097255;28;20206;-76
2022/01/14 10:18:22;;;;;;;16.43;14.67;;;12.00;1.00;;;;;;5093232;28;20213;-75
2022/01/14 10:20:50;;;;;;;16.60;12.53;;;13.00;1.00;;;;;;5092772;28;20202;-82
2022/01/14 10:23:18;;;;;;;15.63;13.97;;;14.50;99.90;;;;;;5093079;28;20201;-80
2022/01/14 10:25:56;;;;;;;15.43;13.13;;;14.50;99.90;;;;;;5092734;28;20202;-77
2022/01/14 10:28:24;;;;;;;16.47;11.60;;;14.70;99.90;;;;;;5092872;28;20229;-80
2022/01/14 10:30:52;;;;;;;15.33;12.77;;;12.80;99.90;;;;;;5092544;28;20861;-80
2022/01/14 10:33:22;;;;;;;17.43;14.03;;;7.60;99.90;;;;;;5105511;28;20224;-77
2022/01/14 10:35:49;;;;;;;13.70;11.40;;;5.30;1.00;;;;;;5111081;28;21062;-78
2022/01/14 10:38:19;;;;;;;14.20;11.80;;;4.10;1.00;;;;;;5113287;28;20254;-82
2022/01/14 10:40:48;;;;;;;14.93;13.10;;;3.70;1.00;;;;;;5112613;27;20271;-79
2022/01/14 10:43:17;;;;;;;16.57;13.33;;;3.90;1.00;;;;;;5113305;28;20246;-76
2022/01/14 10:45:46;;;;;;;10.70;9.57;;;3.80;1.00;;;;;;5112882;28;20729;-79
2022/01/14 10:48:16;;;;;;;12.30;11.00;;;4.50;1.00;;;;;;5111929;28;20224;-79
2022/01/14 10:50:45;;;;;;;15.23;11.33;;;4.70;1.00;;;;;;5110094;28;20200;-75
2022/01/14 10:53:15;;;;;;;14.23;11.33;;;6.60;1.00;;;;;;5111799;28;20250;-75
2022/01/14 10:55:44;;;;;;;14.90;10.27;;;9.60;1.00;;;;;;5110817;28;20262;-81
2022/01/14 10:58:16;;;;;;;18.07;13.40;;;12.10;1.00;;;;;;5111987;28;20197;-81
2022/01/14 11:00:47;;;;;;;15.87;11.30;;;7.90;1.00;;;;;;5111486;28;20208;-83
2022/01/14 11:03:14;;;;;;;16.43;11.83;;;5.40;1.00;;;;;;5111983;28;20291;-81
2022/01/14 11:05:42;;;;;;;14.00;10.60;;;4.50;1.00;;;;;;5111367;28;20262;-80
2022/01/14 11:08:09;;;;;;;16.60;11.53;;;4.20;1.00;;;;;;5112305;28;20240;-81
2022/01/14 11:10:39;;;;;;;14.93;10.93;;;4.20;1.00;;;;;;5111585;28;20668;-79
2022/01/14 11:13:11;;;;;;;15.60;10.67;;;4.10;1.00;;;;;;5112188;28;20205;-79
2022/01/14 11:15:38;;;;;;;17.10;13.10;;;4.30;1.00;;;;;;5111750;28;20734;-73
2022/01/14 11:18:07;;;;;;;16.40;11.20;;;4.30;1.00;;;;;;5111108;28;20242;-74
2022/01/14 11:23:14;;;;;;;16.03;11.03;;;4.20;1.00;;;;;;5112739;28;20197;-81
2022/01/14 11:23:23;;;;;;;17.60;13.30;;;4.20;1.00;;;;;;5112879;28;20573;-78
2022/01/14 11:26:00;;;;;;;18.83;14.00;;;4.30;1.00;;;;;;5111738;28;20210;-74
2022/01/14 11:28:30;;;;;;;22.90;13.80;;;4.40;1.00;;;;;;5094763;28;20245;-75
2022/01/14 11:30:59;;;;;;;19.83;13.43;;;4.60;1.00;;;;;;5098332;28;20215;-73
2022/01/14 11:33:43;;;;;;;17.90;14.17;;;4.50;1.00;;;;;;5111558;28;20219;-74
2022/01/14 11:36:11;;;;;;;21.07;14.10;;;4.50;1.00;;;;;;5110341;28;20262;-74
2022/01/14 11:38:41;;;;;;;18.47;13.93;;;4.60;1.00;;;;;;5110427;28;20724;-74
2022/01/14 11:41:10;;;;;;;20.07;14.47;;;4.60;1.00;;;;;;5111826;28;20250;-72
2022/01/14 11:43:46;;;;;;;17.63;14.00;;;4.80;1.00;;;;;;5111337;28;21424;-75
2022/01/14 11:46:16;;;;;;;20.10;14.17;;;4.80;1.00;;;;;;5115018;28;20201;-73
2022/01/14 11:48:49;;;;;;;18.40;14.67;;;4.70;1.00;;;;;;5112811;28;20269;-74
2022/01/14 11:51:18;;;;;;;20.60;14.73;;;4.80;1.00;;;;;;5112864;28;20649;-75
2022/01/14 11:53:51;;;;;;;19.80;14.13;;;4.80;1.00;;;;;;5097818;28;20669;-77
2022/01/14 11:56:46;;;;;;;18.60;14.60;;;5.10;1.00;;;;;;5092624;28;20722;-73
2022/01/14 11:59:45;;;;;;;20.57;15.63;;;5.00;1.00;;;;;;5091554;28;20209;-73
2022/01/14 12:02:34;;;;;;;22.07;14.50;;;5.10;1.00;;;;;;5101526;28;20213;-72
2022/01/14 12:05:10;;;;;;;19.83;14.93;;;5.20;1.00;;;;;;5112431;28;20740;-75
2022/01/14 12:08:23;;;;;;;17.27;12.87;;;5.40;1.00;;;;;;5110939;28;20228;-74
2022/01/14 12:10:59;;;;;;;18.10;13.00;;;5.70;1.00;;;;;;5109679;28;20234;-74
2022/01/14 12:13:36;;;;;;;18.87;11.40;;;5.80;1.00;;;;;;5111473;28;20208;-75
2022/01/14 12:16:05;;;;;;;16.77;13.33;;;5.90;1.00;;;;;;5109911;28;20254;-76
2022/01/14 12:19:13;;;;;;;17.43;12.73;;;5.90;1.00;;;;;;5110124;28;20291;-74
2022/01/14 12:22:00;;;;;;;16.43;11.67;;;6.10;1.00;;;;;;5100781;28;20209;-75
2022/01/14 12:24:41;;;;;;;14.90;11.83;;;6.30;1.00;;;;;;5110758;28;20208;-74
2022/01/14 12:27:47;;;;;;;14.10;11.40;;;6.40;1.00;;;;;;5110423;28;20612;-76
2022/01/14 12:30:26;;;;;;;13.10;9.73;;;6.30;1.00;;;;;;5090874;28;20224;-76
2022/01/14 12:32:55;;;;;;;14.40;11.00;;;6.30;1.00;;;;;;5099600;28;20251;-74
2022/01/14 12:35:30;;;;;;;12.33;10.60;;;6.30;1.00;;;;;;5111330;28;20374;-75
2022/01/14 12:38:00;;;;;;;15.30;11.90;;;6.50;1.00;;;;;;5110213;28;20208;-75
2022/01/14 12:40:30;;;;;;;13.93;10.17;;;6.50;1.00;;;;;;5111185;28;20220;-83
2022/01/14 12:42:59;;;;;;;16.30;9.30;;;6.60;1.00;;;;;;5112515;28;20212;-84
2022/01/14 12:45:35;;;;;;;14.37;10.33;;;6.50;1.00;;;;;;5112406;28;20262;-84
2022/01/14 12:48:46;;;;;;;15.43;9.07;;;6.70;1.00;;;;;;5112249;28;20234;-84
2022/01/14 12:51:16;;;;;;;15.47;11.57;;;6.70;1.00;;;;;;5112026;28;20197;-83
2022/01/14 12:53:56;;;;;;;15.30;11.13;;;6.70;1.00;;;;;;5111114;28;20581;-84
2022/01/14 12:56:25;;;;;;;13.73;9.30;;;6.80;1.00;;;;;;5112193;28;20201;-82
2022/01/14 12:59:13;;;;;;;14.97;9.80;;;7.00;1.00;;;;;;5111724;28;20315;-83
2022/01/14 13:01:42;;;;;;;13.00;10.00;;;7.10;1.00;;;;;;5111770;28;20258;-85
2022/01/14 13:04:11;;;;;;;13.00;9.40;;;7.00;1.00;;;;;;5111573;28;20216;-84